sensor_id;sensor_type;location;lat;lon;timestamp;temperature;humidity
9371;DHT22;4725;48.384;8.984;2023-07-29T00:01:30;15.60;99.90
9371;DHT22;4725;48.384;8.984;2023-07-29T00:03:57;15.60;99.90
9371;DHT22;4725;48.384;8.984;2023-07-29T00:06:24;15.50;99.90
9371;DHT22;4725;48.384;8.984;2023-07-29T00:08:52;15.50;99.90
9371;DHT22;4725;48.384;8.984;2023-07-29T00:11:19;15.50;99.90
9371;DHT22;4725;48.384;8.984;2023-07-29T00:13:46;15.50;99.90
9371;DHT22;4725;48.384;8.984;2023-07-29T00:16:15;15.50;99.90
9371;DHT22;4725;48.384;8.984;2023-07-29T00:21:10;15.40;99.90
9371;DHT22;4725;48.384;8.984;2023-07-29T00:23:36;15.50;99.90
9371;DHT22;4725;48.384;8.984;2023-07-29T00:26:05;15.50;99.90
9371;DHT22;4725;48.384;8.984;2023-07-29T00:28:32;15.50;99.90
9371;DHT22;4725;48.384;8.984;2023-07-29T00:30:59;15.50;99.90
9371;DHT22;4725;48.384;8.984;2023-07-29T00:33:26;15.60;99.90
9371;DHT22;4725;48.384;8.984;2023-07-29T00:35:52;15.60;99.90
9371;DHT22;4725;48.384;8.984;2023-07-29T00:38:19;15.60;99.90
9371;DHT22;4725;48.384;8.984;2023-07-29T00:40:46;15.60;99.90
9371;DHT22;4725;48.384;8.984;2023-07-29T00:43:15;15.60;99.90
9371;DHT22;4725;48.384;8.984;2023-07-29T00:45:43;15.60;99.90
9371;DHT22;4725;48.384;8.984;2023-07-29T00:48:10;15.50;99.90
9371;DHT22;4725;48.384;8.984;2023-07-29T00:50:37;15.50;99.90
9371;DHT22;4725;48.384;8.984;2023-07-29T00:53:04;15.50;99.90
9371;DHT22;4725;48.384;8.984;2023-07-29T00:55:31;15.50;99.90
9371;DHT22;4725;48.384;8.984;2023-07-29T00:57:58;15.50;99.90
9371;DHT22;4725;48.384;8.984;2023-07-29T01:00:27;15.50;99.90
9371;DHT22;4725;48.384;8.984;2023-07-29T01:02:54;15.50;99.90
9371;DHT22;4725;48.384;8.984;2023-07-29T01:05:21;15.50;99.90
9371;DHT22;4725;48.384;8.984;2023-07-29T01:07:53;15.50;99.90
9371;DHT22;4725;48.384;8.984;2023-07-29T01:10:33;15.50;99.90
9371;DHT22;4725;48.384;8.984;2023-07-29T01:13:10;15.50;99.90
9371;DHT22;4725;48.384;8.984;2023-07-29T01:15:44;15.40;99.90
9371;DHT22;4725;48.384;8.984;2023-07-29T01:18:17;15.50;99.90
9371;DHT22;4725;48.384;8.984;2023-07-29T01:20:47;15.40;99.90
9371;DHT22;4725;48.384;8.984;2023-07-29T01:23:16;15.50;99.90
9371;DHT22;4725;48.384;8.984;2023-07-29T01:25:44;15.50;99.90
9371;DHT22;4725;48.384;8.984;2023-07-29T01:28:11;15.50;99.90
9371;DHT22;4725;48.384;8.984;2023-07-29T01:30:39;15.50;99.90
9371;DHT22;4725;48.384;8.984;2023-07-29T01:33:10;15.50;99.90
9371;DHT22;4725;48.384;8.984;2023-07-29T01:35:42;15.50;99.90
9371;DHT22;4725;48.384;8.984;2023-07-29T01:38:14;15.50;99.90
9371;DHT22;4725;48.384;8.984;2023-07-29T01:40:45;15.40;99.90
9371;DHT22;4725;48.384;8.984;2023-07-29T01:43:12;15.30;99.90
9371;DHT22;4725;48.384;8.984;2023-07-29T01:45:40;15.30;99.90
9371;DHT22;4725;48.384;8.984;2023-07-29T01:48:07;15.20;99.90
9371;DHT22;4725;48.384;8.984;2023-07-29T01:50:34;15.20;99.90
9371;DHT22;4725;48.384;8.984;2023-07-29T01:53:01;15.10;99.90
9371;DHT22;4725;48.384;8.984;2023-07-29T01:55:29;15.10;99.90
9371;DHT22;4725;48.384;8.984;2023-07-29T01:57:57;15.00;99.90
9371;DHT22;4725;48.384;8.984;2023-07-29T02:00:24;15.00;99.90
9371;DHT22;4725;48.384;8.984;2023-07-29T02:02:51;15.00;99.90
9371;DHT22;4725;48.384;8.984;2023-07-29T02:05:18;15.00;99.90
9371;DHT22;4725;48.384;8.984;2023-07-29T02:07:45;15.00;99.90
9371;DHT22;4725;48.384;8.984;2023-07-29T02:10:11;14.90;99.90
9371;DHT22;4725;48.384;8.984;2023-07-29T02:12:38;14.80;99.90
9371;DHT22;4725;48.384;8.984;2023-07-29T02:15:08;14.80;99.90
9371;DHT22;4725;48.384;8.984;2023-07-29T02:17:35;14.70;99.90
9371;DHT22;4725;48.384;8.984;2023-07-29T02:20:03;14.70;99.90
9371;DHT22;4725;48.384;8.984;2023-07-29T02:22:30;14.60;99.90
9371;DHT22;4725;48.384;8.984;2023-07-29T02:24:57;14.60;99.90
9371;DHT22;4725;48.384;8.984;2023-07-29T02:27:23;14.60;99.90
9371;DHT22;4725;48.384;8.984;2023-07-29T02:29:52;14.50;99.90
9371;DHT22;4725;48.384;8.984;2023-07-29T02:32:21;14.50;99.90
9371;DHT22;4725;48.384;8.984;2023-07-29T02:34:48;14.40;99.90
9371;DHT22;4725;48.384;8.984;2023-07-29T02:37:15;14.40;99.90
9371;DHT22;4725;48.384;8.984;2023-07-29T02:39:42;14.40;99.90
9371;DHT22;4725;48.384;8.984;2023-07-29T02:42:08;14.40;99.90
9371;DHT22;4725;48.384;8.984;2023-07-29T02:44:35;14.40;99.90
9371;DHT22;4725;48.384;8.984;2023-07-29T02:47:03;14.40;99.90
9371;DHT22;4725;48.384;8.984;2023-07-29T02:49:31;14.50;99.90
9371;DHT22;4725;48.384;8.984;2023-07-29T02:51:58;14.70;99.90
9371;DHT22;4725;48.384;8.984;2023-07-29T02:54:25;14.80;99.90
9371;DHT22;4725;48.384;8.984;2023-07-29T02:56:53;14.90;99.90
9371;DHT22;4725;48.384;8.984;2023-07-29T02:59:20;15.10;99.90
9371;DHT22;4725;48.384;8.984;2023-07-29T03:01:47;15.20;99.90
9371;DHT22;4725;48.384;8.984;2023-07-29T03:04:14;15.30;99.90
9371;DHT22;4725;48.384;8.984;2023-07-29T03:06:42;15.40;99.90
9371;DHT22;4725;48.384;8.984;2023-07-29T03:09:09;15.50;99.90
9371;DHT22;4725;48.384;8.984;2023-07-29T03:11:36;15.60;99.90
9371;DHT22;4725;48.384;8.984;2023-07-29T03:14:03;15.60;99.90
9371;DHT22;4725;48.384;8.984;2023-07-29T03:16:29;15.60;99.90
9371;DHT22;4725;48.384;8.984;2023-07-29T03:18:56;15.60;99.90
9371;DHT22;4725;48.384;8.984;2023-07-29T03:21:25;15.60;99.90
9371;DHT22;4725;48.384;8.984;2023-07-29T03:23:54;15.70;99.90
9371;DHT22;4725;48.384;8.984;2023-07-29T03:26:20;15.70;99.90
9371;DHT22;4725;48.384;8.984;2023-07-29T03:28:47;15.60;99.90
9371;DHT22;4725;48.384;8.984;2023-07-29T03:31:14;15.70;99.90
9371;DHT22;4725;48.384;8.984;2023-07-29T03:33:41;15.60;99.90
9371;DHT22;4725;48.384;8.984;2023-07-29T03:36:08;15.60;99.90
9371;DHT22;4725;48.384;8.984;2023-07-29T03:38:35;15.70;99.90
9371;DHT22;4725;48.384;8.984;2023-07-29T03:41:06;15.70;99.90
9371;DHT22;4725;48.384;8.984;2023-07-29T03:43:34;15.70;99.90
9371;DHT22;4725;48.384;8.984;2023-07-29T03:46:01;15.80;99.90
9371;DHT22;4725;48.384;8.984;2023-07-29T03:48:27;15.80;99.90
9371;DHT22;4725;48.384;8.984;2023-07-29T03:50:54;15.80;99.90
9371;DHT22;4725;48.384;8.984;2023-07-29T03:53:21;15.80;99.90
9371;DHT22;4725;48.384;8.984;2023-07-29T03:55:48;15.80;99.90
9371;DHT22;4725;48.384;8.984;2023-07-29T03:58:17;15.80;99.90
9371;DHT22;4725;48.384;8.984;2023-07-29T04:00:44;15.80;99.90
9371;DHT22;4725;48.384;8.984;2023-07-29T04:03:10;15.80;99.90
9371;DHT22;4725;48.384;8.984;2023-07-29T04:05:37;15.70;99.90
9371;DHT22;4725;48.384;8.984;2023-07-29T04:08:04;15.80;99.90
9371;DHT22;4725;48.384;8.984;2023-07-29T04:10:31;15.80;99.90
9371;DHT22;4725;48.384;8.984;2023-07-29T04:12:58;15.80;99.90
9371;DHT22;4725;48.384;8.984;2023-07-29T04:15:26;15.80;99.90
9371;DHT22;4725;48.384;8.984;2023-07-29T04:20:20;15.80;99.90
9371;DHT22;4725;48.384;8.984;2023-07-29T04:22:47;15.90;99.90
9371;DHT22;4725;48.384;8.984;2023-07-29T04:25:14;15.90;99.90
9371;DHT22;4725;48.384;8.984;2023-07-29T04:27:41;15.90;99.90
9371;DHT22;4725;48.384;8.984;2023-07-29T04:30:08;16.00;99.90
9371;DHT22;4725;48.384;8.984;2023-07-29T04:32:36;16.00;99.90
9371;DHT22;4725;48.384;8.984;2023-07-29T04:35:04;16.00;99.90
9371;DHT22;4725;48.384;8.984;2023-07-29T04:37:31;16.10;99.90
9371;DHT22;4725;48.384;8.984;2023-07-29T04:39:58;16.20;99.90
9371;DHT22;4725;48.384;8.984;2023-07-29T04:42:24;16.20;99.90
9371;DHT22;4725;48.384;8.984;2023-07-29T04:44:51;16.30;99.90
9371;DHT22;4725;48.384;8.984;2023-07-29T04:47:18;16.30;99.90
9371;DHT22;4725;48.384;8.984;2023-07-29T04:49:46;16.30;99.90
9371;DHT22;4725;48.384;8.984;2023-07-29T04:52:13;16.40;99.90
9371;DHT22;4725;48.384;8.984;2023-07-29T04:54:41;16.40;99.90
9371;DHT22;4725;48.384;8.984;2023-07-29T04:57:08;16.40;99.90
9371;DHT22;4725;48.384;8.984;2023-07-29T04:59:35;16.40;99.90
9371;DHT22;4725;48.384;8.984;2023-07-29T05:02:02;16.50;99.90
9371;DHT22;4725;48.384;8.984;2023-07-29T05:04:29;16.50;99.90
9371;DHT22;4725;48.384;8.984;2023-07-29T05:06:57;16.50;99.90
9371;DHT22;4725;48.384;8.984;2023-07-29T05:09:24;16.70;99.90
9371;DHT22;4725;48.384;8.984;2023-07-29T05:11:51;16.70;99.90
9371;DHT22;4725;48.384;8.984;2023-07-29T05:14:18;16.50;99.90
9371;DHT22;4725;48.384;8.984;2023-07-29T05:16:45;16.50;99.90
9371;DHT22;4725;48.384;8.984;2023-07-29T05:19:12;16.40;99.90
9371;DHT22;4725;48.384;8.984;2023-07-29T05:21:39;16.50;99.90
9371;DHT22;4725;48.384;8.984;2023-07-29T05:24:07;16.60;99.90
9371;DHT22;4725;48.384;8.984;2023-07-29T05:26:34;16.60;99.90
9371;DHT22;4725;48.384;8.984;2023-07-29T05:29:01;16.60;99.90
9371;DHT22;4725;48.384;8.984;2023-07-29T05:31:29;16.70;99.90
9371;DHT22;4725;48.384;8.984;2023-07-29T05:33:56;16.80;99.90
9371;DHT22;4725;48.384;8.984;2023-07-29T05:36:23;16.80;99.90
9371;DHT22;4725;48.384;8.984;2023-07-29T05:38:51;16.90;99.90
9371;DHT22;4725;48.384;8.984;2023-07-29T05:41:20;17.10;99.90
9371;DHT22;4725;48.384;8.984;2023-07-29T05:43:47;17.30;99.90
9371;DHT22;4725;48.384;8.984;2023-07-29T05:46:13;17.30;99.90
9371;DHT22;4725;48.384;8.984;2023-07-29T05:48:40;17.40;99.90
9371;DHT22;4725;48.384;8.984;2023-07-29T05:51:07;17.50;99.90
9371;DHT22;4725;48.384;8.984;2023-07-29T05:53:34;17.60;99.90
9371;DHT22;4725;48.384;8.984;2023-07-29T05:56:01;17.60;99.90
9371;DHT22;4725;48.384;8.984;2023-07-29T05:58:29;17.60;99.90
9371;DHT22;4725;48.384;8.984;2023-07-29T06:00:57;17.50;99.90
9371;DHT22;4725;48.384;8.984;2023-07-29T06:03:24;17.60;99.90
9371;DHT22;4725;48.384;8.984;2023-07-29T06:05:51;17.60;99.90
9371;DHT22;4725;48.384;8.984;2023-07-29T06:08:18;17.60;99.90
9371;DHT22;4725;48.384;8.984;2023-07-29T06:10:45;17.60;99.90
9371;DHT22;4725;48.384;8.984;2023-07-29T06:13:12;17.80;99.90
9371;DHT22;4725;48.384;8.984;2023-07-29T06:15:40;17.80;99.90
9371;DHT22;4725;48.384;8.984;2023-07-29T06:18:07;17.90;99.90
9371;DHT22;4725;48.384;8.984;2023-07-29T06:20:33;18.00;99.90
9371;DHT22;4725;48.384;8.984;2023-07-29T06:23:00;18.20;99.90
9371;DHT22;4725;48.384;8.984;2023-07-29T06:25:27;18.40;99.90
9371;DHT22;4725;48.384;8.984;2023-07-29T06:27:54;18.50;99.90
9371;DHT22;4725;48.384;8.984;2023-07-29T06:30:21;18.60;99.90
9371;DHT22;4725;48.384;8.984;2023-07-29T06:32:49;18.90;99.90
9371;DHT22;4725;48.384;8.984;2023-07-29T06:35:16;18.90;99.90
9371;DHT22;4725;48.384;8.984;2023-07-29T06:37:43;18.90;99.90
9371;DHT22;4725;48.384;8.984;2023-07-29T06:40:10;18.80;99.90
9371;DHT22;4725;48.384;8.984;2023-07-29T06:42:37;18.70;99.90
9371;DHT22;4725;48.384;8.984;2023-07-29T06:45:05;18.40;99.90
9371;DHT22;4725;48.384;8.984;2023-07-29T06:47:32;18.40;99.90
9371;DHT22;4725;48.384;8.984;2023-07-29T06:50:00;18.20;99.90
9371;DHT22;4725;48.384;8.984;2023-07-29T06:52:28;17.80;99.90
9371;DHT22;4725;48.384;8.984;2023-07-29T06:54:54;17.40;99.90
9371;DHT22;4725;48.384;8.984;2023-07-29T06:57:21;17.20;99.90
9371;DHT22;4725;48.384;8.984;2023-07-29T06:59:48;17.10;99.90
9371;DHT22;4725;48.384;8.984;2023-07-29T07:02:15;17.10;99.90
9371;DHT22;4725;48.384;8.984;2023-07-29T07:04:42;17.00;99.90
9371;DHT22;4725;48.384;8.984;2023-07-29T07:07:11;17.00;99.90
9371;DHT22;4725;48.384;8.984;2023-07-29T07:09:38;17.00;99.90
9371;DHT22;4725;48.384;8.984;2023-07-29T07:12:05;17.10;99.90
9371;DHT22;4725;48.384;8.984;2023-07-29T07:14:32;17.20;99.90
9371;DHT22;4725;48.384;8.984;2023-07-29T07:16:59;17.20;99.90
9371;DHT22;4725;48.384;8.984;2023-07-29T07:19:26;17.20;99.90
9371;DHT22;4725;48.384;8.984;2023-07-29T07:21:53;17.40;99.90
9371;DHT22;4725;48.384;8.984;2023-07-29T07:24:21;17.70;99.90
9371;DHT22;4725;48.384;8.984;2023-07-29T07:26:48;17.70;99.90
9371;DHT22;4725;48.384;8.984;2023-07-29T07:29:15;17.80;99.90
9371;DHT22;4725;48.384;8.984;2023-07-29T07:31:50;17.90;99.90
9371;DHT22;4725;48.384;8.984;2023-07-29T07:34:17;17.90;99.90
9371;DHT22;4725;48.384;8.984;2023-07-29T07:36:44;17.90;99.90
9371;DHT22;4725;48.384;8.984;2023-07-29T07:39:11;17.90;99.90
9371;DHT22;4725;48.384;8.984;2023-07-29T07:41:39;17.90;99.90
9371;DHT22;4725;48.384;8.984;2023-07-29T07:44:06;17.90;99.90
9371;DHT22;4725;48.384;8.984;2023-07-29T07:46:33;18.00;99.90
9371;DHT22;4725;48.384;8.984;2023-07-29T07:49:00;17.90;99.90
9371;DHT22;4725;48.384;8.984;2023-07-29T07:51:27;17.80;99.90
9371;DHT22;4725;48.384;8.984;2023-07-29T07:53:54;17.70;99.90
9371;DHT22;4725;48.384;8.984;2023-07-29T07:56:21;17.70;99.90
9371;DHT22;4725;48.384;8.984;2023-07-29T08:01:16;17.60;99.90
9371;DHT22;4725;48.384;8.984;2023-07-29T08:03:43;17.60;99.90
9371;DHT22;4725;48.384;8.984;2023-07-29T08:06:10;17.70;99.90
9371;DHT22;4725;48.384;8.984;2023-07-29T08:08:37;17.70;99.90
9371;DHT22;4725;48.384;8.984;2023-07-29T08:11:04;17.80;99.90
9371;DHT22;4725;48.384;8.984;2023-07-29T08:13:31;18.30;99.90
9371;DHT22;4725;48.384;8.984;2023-07-29T08:15:59;18.30;99.90
9371;DHT22;4725;48.384;8.984;2023-07-29T08:18:26;20.00;99.90
9371;DHT22;4725;48.384;8.984;2023-07-29T08:20:53;18.60;99.90
9371;DHT22;4725;48.384;8.984;2023-07-29T08:23:23;18.90;99.90
9371;DHT22;4725;48.384;8.984;2023-07-29T08:25:52;18.90;99.90
9371;DHT22;4725;48.384;8.984;2023-07-29T08:28:19;19.10;99.90
9371;DHT22;4725;48.384;8.984;2023-07-29T08:30:46;19.10;99.90
9371;DHT22;4725;48.384;8.984;2023-07-29T08:33:15;19.60;99.90
9371;DHT22;4725;48.384;8.984;2023-07-29T08:35:42;19.60;99.90
9371;DHT22;4725;48.384;8.984;2023-07-29T08:38:09;19.60;99.90
9371;DHT22;4725;48.384;8.984;2023-07-29T08:40:38;19.80;99.90
9371;DHT22;4725;48.384;8.984;2023-07-29T08:43:09;20.20;99.90
9371;DHT22;4725;48.384;8.984;2023-07-29T08:45:38;20.20;99.90
9371;DHT22;4725;48.384;8.984;2023-07-29T08:48:08;20.50;99.90
9371;DHT22;4725;48.384;8.984;2023-07-29T08:50:38;20.50;99.90
9371;DHT22;4725;48.384;8.984;2023-07-29T08:53:06;20.50;99.90
9371;DHT22;4725;48.384;8.984;2023-07-29T08:55:33;20.60;99.90
9371;DHT22;4725;48.384;8.984;2023-07-29T08:58:01;20.80;99.90
9371;DHT22;4725;48.384;8.984;2023-07-29T09:00:29;20.80;99.90
9371;DHT22;4725;48.384;8.984;2023-07-29T09:02:56;20.90;99.90
9371;DHT22;4725;48.384;8.984;2023-07-29T09:05:28;21.00;99.90
9371;DHT22;4725;48.384;8.984;2023-07-29T09:07:56;21.20;99.90
9371;DHT22;4725;48.384;8.984;2023-07-29T09:10:26;21.30;99.90
9371;DHT22;4725;48.384;8.984;2023-07-29T09:12:53;21.30;99.90
9371;DHT22;4725;48.384;8.984;2023-07-29T09:15:27;21.20;99.90
9371;DHT22;4725;48.384;8.984;2023-07-29T09:17:56;21.00;99.90
9371;DHT22;4725;48.384;8.984;2023-07-29T09:20:26;21.30;99.90
9371;DHT22;4725;48.384;8.984;2023-07-29T09:22:58;21.30;99.90
9371;DHT22;4725;48.384;8.984;2023-07-29T09:25:26;21.10;99.90
9371;DHT22;4725;48.384;8.984;2023-07-29T09:27:58;21.20;99.90
9371;DHT22;4725;48.384;8.984;2023-07-29T09:30:26;21.50;99.90
9371;DHT22;4725;48.384;8.984;2023-07-29T09:32:55;21.80;99.90
9371;DHT22;4725;48.384;8.984;2023-07-29T09:35:23;21.90;99.90
9371;DHT22;4725;48.384;8.984;2023-07-29T09:37:50;22.30;99.90
9371;DHT22;4725;48.384;8.984;2023-07-29T09:40:19;22.50;99.90
9371;DHT22;4725;48.384;8.984;2023-07-29T09:42:49;22.60;99.90
9371;DHT22;4725;48.384;8.984;2023-07-29T09:45:21;23.00;99.90
9371;DHT22;4725;48.384;8.984;2023-07-29T09:47:48;23.00;99.90
9371;DHT22;4725;48.384;8.984;2023-07-29T09:50:16;22.60;99.90
9371;DHT22;4725;48.384;8.984;2023-07-29T09:52:43;22.50;99.90
9371;DHT22;4725;48.384;8.984;2023-07-29T09:55:12;22.80;99.90
9371;DHT22;4725;48.384;8.984;2023-07-29T09:57:41;22.80;99.90
9371;DHT22;4725;48.384;8.984;2023-07-29T10:00:11;22.40;99.90
9371;DHT22;4725;48.384;8.984;2023-07-29T10:02:39;22.40;99.90
9371;DHT22;4725;48.384;8.984;2023-07-29T10:05:07;22.20;99.90
9371;DHT22;4725;48.384;8.984;2023-07-29T10:07:36;22.10;99.90
9371;DHT22;4725;48.384;8.984;2023-07-29T10:10:05;22.20;99.90
9371;DHT22;4725;48.384;8.984;2023-07-29T10:12:33;22.60;99.90
9371;DHT22;4725;48.384;8.984;2023-07-29T10:15:03;22.80;99.90
9371;DHT22;4725;48.384;8.984;2023-07-29T10:17:30;22.80;99.90
9371;DHT22;4725;48.384;8.984;2023-07-29T10:19:57;22.80;99.90
9371;DHT22;4725;48.384;8.984;2023-07-29T10:22:28;22.80;99.90
9371;DHT22;4725;48.384;8.984;2023-07-29T10:25:03;23.30;99.90
9371;DHT22;4725;48.384;8.984;2023-07-29T10:27:36;24.30;99.90
9371;DHT22;4725;48.384;8.984;2023-07-29T10:30:10;24.40;99.90
9371;DHT22;4725;48.384;8.984;2023-07-29T10:32:38;24.60;99.90
9371;DHT22;4725;48.384;8.984;2023-07-29T10:35:06;24.20;99.90
9371;DHT22;4725;48.384;8.984;2023-07-29T10:37:33;24.10;99.90
9371;DHT22;4725;48.384;8.984;2023-07-29T10:40:00;24.10;99.90
9371;DHT22;4725;48.384;8.984;2023-07-29T10:42:32;24.60;99.90
9371;DHT22;4725;48.384;8.984;2023-07-29T10:44:59;24.80;99.90
9371;DHT22;4725;48.384;8.984;2023-07-29T10:47:28;24.90;99.90
9371;DHT22;4725;48.384;8.984;2023-07-29T10:49:56;25.40;99.90
9371;DHT22;4725;48.384;8.984;2023-07-29T10:52:31;25.80;99.90
9371;DHT22;4725;48.384;8.984;2023-07-29T10:54:58;24.90;99.90
9371;DHT22;4725;48.384;8.984;2023-07-29T10:57:33;24.70;99.90
9371;DHT22;4725;48.384;8.984;2023-07-29T11:00:01;24.10;99.90
9371;DHT22;4725;48.384;8.984;2023-07-29T11:02:32;23.70;99.90
9371;DHT22;4725;48.384;8.984;2023-07-29T11:05:04;23.50;99.90
9371;DHT22;4725;48.384;8.984;2023-07-29T11:07:31;23.30;99.90
9371;DHT22;4725;48.384;8.984;2023-07-29T11:10:02;23.10;99.90
9371;DHT22;4725;48.384;8.984;2023-07-29T11:12:44;22.70;99.90
9371;DHT22;4725;48.384;8.984;2023-07-29T11:15:15;22.40;99.90
9371;DHT22;4725;48.384;8.984;2023-07-29T11:17:45;22.10;99.90
9371;DHT22;4725;48.384;8.984;2023-07-29T11:20:12;21.50;99.90
9371;DHT22;4725;48.384;8.984;2023-07-29T11:22:39;20.60;99.90
9371;DHT22;4725;48.384;8.984;2023-07-29T11:25:08;19.50;99.90
9371;DHT22;4725;48.384;8.984;2023-07-29T11:27:36;18.90;99.90
9371;DHT22;4725;48.384;8.984;2023-07-29T11:30:05;18.20;99.90
9371;DHT22;4725;48.384;8.984;2023-07-29T11:32:33;18.10;99.90
9371;DHT22;4725;48.384;8.984;2023-07-29T11:35:14;18.30;99.90
9371;DHT22;4725;48.384;8.984;2023-07-29T11:37:46;18.10;99.90
9371;DHT22;4725;48.384;8.984;2023-07-29T11:40:23;18.10;99.90
9371;DHT22;4725;48.384;8.984;2023-07-29T11:42:54;18.20;99.90
9371;DHT22;4725;48.384;8.984;2023-07-29T11:45:23;18.30;99.90
9371;DHT22;4725;48.384;8.984;2023-07-29T11:47:50;18.40;99.90
9371;DHT22;4725;48.384;8.984;2023-07-29T11:52:50;18.60;99.90
9371;DHT22;4725;48.384;8.984;2023-07-29T11:57:52;19.00;99.90
9371;DHT22;4725;48.384;8.984;2023-07-29T12:00:21;19.30;99.90
9371;DHT22;4725;48.384;8.984;2023-07-29T12:02:49;19.60;99.90
9371;DHT22;4725;48.384;8.984;2023-07-29T12:05:20;20.00;99.90
9371;DHT22;4725;48.384;8.984;2023-07-29T12:07:50;20.40;99.90
9371;DHT22;4725;48.384;8.984;2023-07-29T12:10:21;20.40;99.90
9371;DHT22;4725;48.384;8.984;2023-07-29T12:12:49;20.90;99.90
9371;DHT22;4725;48.384;8.984;2023-07-29T12:15:26;21.30;99.90
9371;DHT22;4725;48.384;8.984;2023-07-29T12:17:57;23.10;99.90
9371;DHT22;4725;48.384;8.984;2023-07-29T12:20:28;21.70;99.90
9371;DHT22;4725;48.384;8.984;2023-07-29T12:22:59;21.70;99.90
9371;DHT22;4725;48.384;8.984;2023-07-29T12:25:27;22.00;99.90
9371;DHT22;4725;48.384;8.984;2023-07-29T12:27:56;22.10;99.90
9371;DHT22;4725;48.384;8.984;2023-07-29T12:30:26;21.70;99.90
9371;DHT22;4725;48.384;8.984;2023-07-29T12:32:54;21.50;99.90
9371;DHT22;4725;48.384;8.984;2023-07-29T12:35:35;21.50;99.90
9371;DHT22;4725;48.384;8.984;2023-07-29T12:38:06;21.30;99.90
9371;DHT22;4725;48.384;8.984;2023-07-29T12:40:38;20.90;99.90
9371;DHT22;4725;48.384;8.984;2023-07-29T12:43:19;20.90;99.90
9371;DHT22;4725;48.384;8.984;2023-07-29T12:45:56;20.80;99.90
9371;DHT22;4725;48.384;8.984;2023-07-29T12:51:05;21.30;99.90
9371;DHT22;4725;48.384;8.984;2023-07-29T12:53:34;21.60;99.90
9371;DHT22;4725;48.384;8.984;2023-07-29T12:56:03;21.50;99.90
9371;DHT22;4725;48.384;8.984;2023-07-29T12:58:30;21.60;99.90
9371;DHT22;4725;48.384;8.984;2023-07-29T13:00:57;21.80;99.90
9371;DHT22;4725;48.384;8.984;2023-07-29T13:06:00;21.70;99.90
9371;DHT22;4725;48.384;8.984;2023-07-29T13:08:30;22.00;99.90
9371;DHT22;4725;48.384;8.984;2023-07-29T13:11:03;22.30;99.90
9371;DHT22;4725;48.384;8.984;2023-07-29T13:13:34;22.00;99.90
9371;DHT22;4725;48.384;8.984;2023-07-29T13:16:06;21.80;99.90
9371;DHT22;4725;48.384;8.984;2023-07-29T13:18:38;21.80;99.90
9371;DHT22;4725;48.384;8.984;2023-07-29T13:21:10;22.00;99.90
9371;DHT22;4725;48.384;8.984;2023-07-29T13:23:37;22.30;99.90
9371;DHT22;4725;48.384;8.984;2023-07-29T13:26:07;22.30;99.90
9371;DHT22;4725;48.384;8.984;2023-07-29T13:28:34;22.10;99.90
9371;DHT22;4725;48.384;8.984;2023-07-29T13:31:03;22.40;99.90
9371;DHT22;4725;48.384;8.984;2023-07-29T13:33:32;22.10;99.90
9371;DHT22;4725;48.384;8.984;2023-07-29T13:35:59;22.20;99.90
9371;DHT22;4725;48.384;8.984;2023-07-29T13:38:28;22.40;99.90
9371;DHT22;4725;48.384;8.984;2023-07-29T13:41:09;22.00;99.90
9371;DHT22;4725;48.384;8.984;2023-07-29T13:43:39;22.10;99.90
9371;DHT22;4725;48.384;8.984;2023-07-29T13:46:09;22.20;99.90
9371;DHT22;4725;48.384;8.984;2023-07-29T13:48:38;22.30;99.90
9371;DHT22;4725;48.384;8.984;2023-07-29T13:51:12;22.30;99.90
9371;DHT22;4725;48.384;8.984;2023-07-29T13:53:44;22.80;99.90
9371;DHT22;4725;48.384;8.984;2023-07-29T13:56:17;22.80;99.90
9371;DHT22;4725;48.384;8.984;2023-07-29T13:58:46;23.40;99.90
9371;DHT22;4725;48.384;8.984;2023-07-29T14:01:16;23.00;99.90
9371;DHT22;4725;48.384;8.984;2023-07-29T14:03:43;22.50;99.90
9371;DHT22;4725;48.384;8.984;2023-07-29T14:06:10;22.60;99.90
9371;DHT22;4725;48.384;8.984;2023-07-29T14:08:39;22.70;99.90
9371;DHT22;4725;48.384;8.984;2023-07-29T14:11:10;22.70;99.90
9371;DHT22;4725;48.384;8.984;2023-07-29T14:13:44;23.90;99.90
9371;DHT22;4725;48.384;8.984;2023-07-29T14:16:13;24.10;99.90
9371;DHT22;4725;48.384;8.984;2023-07-29T14:18:42;25.70;99.90
9371;DHT22;4725;48.384;8.984;2023-07-29T14:21:15;25.70;99.90
9371;DHT22;4725;48.384;8.984;2023-07-29T14:23:44;24.50;99.90
9371;DHT22;4725;48.384;8.984;2023-07-29T14:26:14;24.40;99.90
9371;DHT22;4725;48.384;8.984;2023-07-29T14:28:41;24.00;99.90
9371;DHT22;4725;48.384;8.984;2023-07-29T14:31:12;24.30;99.90
9371;DHT22;4725;48.384;8.984;2023-07-29T14:33:44;25.90;99.90
9371;DHT22;4725;48.384;8.984;2023-07-29T14:36:17;26.00;99.90
9371;DHT22;4725;48.384;8.984;2023-07-29T14:38:47;26.50;99.90
9371;DHT22;4725;48.384;8.984;2023-07-29T14:41:16;26.00;99.90
9371;DHT22;4725;48.384;8.984;2023-07-29T14:43:51;26.80;99.90
9371;DHT22;4725;48.384;8.984;2023-07-29T14:46:21;27.00;99.90
9371;DHT22;4725;48.384;8.984;2023-07-29T14:48:52;26.60;99.90
9371;DHT22;4725;48.384;8.984;2023-07-29T14:51:22;26.30;99.90
9371;DHT22;4725;48.384;8.984;2023-07-29T14:53:53;25.40;99.90
9371;DHT22;4725;48.384;8.984;2023-07-29T14:56:27;25.40;99.90
9371;DHT22;4725;48.384;8.984;2023-07-29T14:58:59;24.80;99.90
9371;DHT22;4725;48.384;8.984;2023-07-29T15:01:30;24.40;99.90
9371;DHT22;4725;48.384;8.984;2023-07-29T15:04:02;22.60;99.90
9371;DHT22;4725;48.384;8.984;2023-07-29T15:06:41;22.40;99.90
9371;DHT22;4725;48.384;8.984;2023-07-29T15:09:24;21.60;99.90
9371;DHT22;4725;48.384;8.984;2023-07-29T15:11:57;20.90;99.90
9371;DHT22;4725;48.384;8.984;2023-07-29T15:17:15;20.50;99.90
9371;DHT22;4725;48.384;8.984;2023-07-29T15:19:46;20.60;99.90
9371;DHT22;4725;48.384;8.984;2023-07-29T15:22:14;20.50;99.90
9371;DHT22;4725;48.384;8.984;2023-07-29T15:24:46;20.60;99.90
9371;DHT22;4725;48.384;8.984;2023-07-29T15:27:22;20.60;99.90
9371;DHT22;4725;48.384;8.984;2023-07-29T15:29:52;20.60;99.90
9371;DHT22;4725;48.384;8.984;2023-07-29T15:32:23;20.60;99.90
9371;DHT22;4725;48.384;8.984;2023-07-29T15:34:50;20.90;99.90
9371;DHT22;4725;48.384;8.984;2023-07-29T15:37:20;20.80;99.90
9371;DHT22;4725;48.384;8.984;2023-07-29T15:39:47;20.50;99.90
9371;DHT22;4725;48.384;8.984;2023-07-29T15:42:15;20.30;99.90
9371;DHT22;4725;48.384;8.984;2023-07-29T15:44:42;20.10;99.90
9371;DHT22;4725;48.384;8.984;2023-07-29T15:47:19;20.00;99.90
9371;DHT22;4725;48.384;8.984;2023-07-29T15:50:01;19.90;99.90
9371;DHT22;4725;48.384;8.984;2023-07-29T15:52:36;19.80;99.90
9371;DHT22;4725;48.384;8.984;2023-07-29T15:55:09;19.70;99.90
9371;DHT22;4725;48.384;8.984;2023-07-29T15:57:41;19.60;99.90
9371;DHT22;4725;48.384;8.984;2023-07-29T16:00:14;19.60;99.90
9371;DHT22;4725;48.384;8.984;2023-07-29T16:02:44;19.70;99.90
9371;DHT22;4725;48.384;8.984;2023-07-29T16:05:11;19.70;99.90
9371;DHT22;4725;48.384;8.984;2023-07-29T16:07:39;19.80;99.90
9371;DHT22;4725;48.384;8.984;2023-07-29T16:10:10;20.00;99.90
9371;DHT22;4725;48.384;8.984;2023-07-29T16:12:37;20.50;99.90
9371;DHT22;4725;48.384;8.984;2023-07-29T16:15:15;20.20;99.90
9371;DHT22;4725;48.384;8.984;2023-07-29T16:17:46;20.20;99.90
9371;DHT22;4725;48.384;8.984;2023-07-29T16:20:21;19.90;99.90
9371;DHT22;4725;48.384;8.984;2023-07-29T16:23:05;19.80;99.90
9371;DHT22;4725;48.384;8.984;2023-07-29T16:25:33;19.70;99.90
9371;DHT22;4725;48.384;8.984;2023-07-29T16:28:03;19.70;99.90
9371;DHT22;4725;48.384;8.984;2023-07-29T16:30:35;19.60;99.90
9371;DHT22;4725;48.384;8.984;2023-07-29T16:33:04;19.60;99.90